Time,TemperatureF,DewpointF,PressureIn,WindDirection,WindDirectionDegrees,WindSpeedMPH,WindSpeedGustMPH,Humidity,HourlyPrecipIn,Conditions,Clouds,dailyrainin,SoftwareType,DateUTC
2013-01-23 00:00:00,53.8,28.5,30.17,NNW,337,5.1,7.1,37,0.00,,,0.00,tws,2013-01-23 07:00:00,
2013-01-23 00:10:00,53.6,28.4,30.17,NW,315,5.0,6.7,37,0.00,,,0.00,tws,2013-01-23 07:10:00,
2013-01-23 00:20:00,53.7,28.4,30.17,NW,315,4.5,5.0,37,0.00,,,0.00,tws,2013-01-23 07:20:00,
2013-01-23 00:30:00,53.7,28.3,30.17,NNW,337,5.2,5.6,37,0.00,,,0.00,tws,2013-01-23 07:30:00,
2013-01-23 00:40:00,53.8,28.2,30.18,NW,315,5.2,6.4,36,0.00,,,0.00,tws,2013-01-23 07:40:00,
2013-01-23 00:50:00,54.0,28.4,30.17,NW,315,4.6,5.8,36,0.00,,,0.00,tws,2013-01-23 07:50:00,
2013-01-23 01:00:00,54.1,28.4,30.17,NW,315,3.3,4.1,36,0.00,,,0.00,tws,2013-01-23 08:00:00,
2013-01-23 01:10:00,53.9,28.5,30.18,NW,315,4.0,5.2,37,0.00,,,0.00,tws,2013-01-23 08:10:00,
2013-01-23 01:20:00,53.5,28.2,30.17,NNW,337,4.2,4.8,37,0.00,,,0.00,tws,2013-01-23 08:20:00,
2013-01-23 01:30:00,53.1,27.6,30.18,NNW,337,2.5,3.3,36,0.00,,,0.00,tws,2013-01-23 08:30:00,
2013-01-23 01:40:00,52.8,27.7,30.17,NW,315,2.9,3.4,37,0.00,,,0.00,tws,2013-01-23 08:40:00,
2013-01-23 01:50:00,52.5,27.6,30.18,NNW,337,3.6,5.5,37,0.00,,,0.00,tws,2013-01-23 08:50:00,
2013-01-23 02:00:00,52.2,27.2,30.19,North,0,2.6,3.7,37,0.00,,,0.00,tws,2013-01-23 09:00:00,
2013-01-23 02:10:00,51.8,26.9,30.18,NNW,337,2.2,2.4,37,0.00,,,0.00,tws,2013-01-23 09:10:00,
2013-01-23 02:20:00,51.5,27.0,30.18,NNW,337,2.7,3.4,38,0.00,,,0.00,tws,2013-01-23 09:20:00,
2013-01-23 02:30:00,51.3,27.3,30.19,North,0,3.3,4.4,39,0.00,,,0.00,tws,2013-01-23 09:30:00,
2013-01-23 02:40:00,51.1,27.3,30.18,NNW,337,3.2,4.0,39,0.00,,,0.00,tws,2013-01-23 09:40:00,
2013-01-23 02:50:00,50.8,27.1,30.18,NW,315,3.8,6.0,39,0.00,,,0.00,tws,2013-01-23 09:50:00,
2013-01-23 03:00:00,50.6,27.3,30.19,NW,315,4.7,6.0,40,0.00,,,0.00,tws,2013-01-23 10:00:00,
2013-01-23 03:10:00,50.4,27.2,30.19,NW,315,5.2,6.0,40,0.00,,,0.00,tws,2013-01-23 10:10:00,
2013-01-23 03:20:00,50.3,26.9,30.18,NW,315,5.8,6.8,39,0.00,,,0.00,tws,2013-01-23 10:20:00,
2013-01-23 03:30:00,50.4,26.8,30.18,NW,315,4.4,5.2,39,0.00,,,0.00,tws,2013-01-23 10:30:00,
2013-01-23 03:40:00,50.5,27.0,30.18,NW,315,5.2,5.8,39,0.00,,,0.00,tws,2013-01-23 10:40:00,
2013-01-23 03:50:00,50.7,27.4,30.17,North,0,3.8,4.5,40,0.00,,,0.00,tws,2013-01-23 10:50:00,
2013-01-23 04:00:00,50.7,27.2,30.17,NW,315,3.0,3.5,39,0.00,,,0.00,tws,2013-01-23 11:00:00,
2013-01-23 04:10:00,50.6,27.0,30.17,NNW,337,3.3,4.4,39,0.00,,,0.00,tws,2013-01-23 11:10:00,
2013-01-23 04:20:00,50.3,26.8,30.17,NNW,337,2.7,3.1,39,0.00,,,0.00,tws,2013-01-23 11:20:00,
2013-01-23 04:30:00,49.9,27.0,30.17,NW,315,3.0,3.6,40,0.00,,,0.00,tws,2013-01-23 11:30:00,
2013-01-23 04:40:00,49.7,27.0,30.17,NNW,337,3.0,3.4,41,0.00,,,0.00,tws,2013-01-23 11:40:00,
2013-01-23 04:50:00,49.4,27.3,30.17,NNW,337,3.0,3.4,41,0.00,,,0.00,tws,2013-01-23 11:50:00,
2013-01-23 05:00:00,49.3,27.5,30.17,WNW,292,3.3,4.0,42,0.00,,,0.00,tws,2013-01-23 12:00:00,
2013-01-23 05:10:00,49.1,27.2,30.17,NNW,337,3.8,4.5,42,0.00,,,0.00,tws,2013-01-23 12:10:00,
2013-01-23 05:20:00,49.1,27.3,30.17,NE,45,3.7,4.5,42,0.00,,,0.00,tws,2013-01-23 12:20:00,
2013-01-23 05:30:00,48.9,27.4,30.18,NE,45,3.0,3.6,42,0.00,,,0.00,tws,2013-01-23 12:30:00,
2013-01-23 05:40:00,48.7,27.4,30.17,North,0,3.3,4.1,43,0.00,,,0.00,tws,2013-01-23 12:40:00,
2013-01-23 05:50:00,48.5,27.4,30.17,North,0,3.5,4.4,43,0.00,,,0.00,tws,2013-01-23 12:50:00,
2013-01-23 06:00:00,48.3,27.4,30.17,North,0,3.3,3.8,43,0.00,,,0.00,tws,2013-01-23 13:00:00,
2013-01-23 06:10:00,48.1,27.4,30.17,NE,45,3.4,4.2,44,0.00,,,0.00,tws,2013-01-23 13:10:00,
2013-01-23 06:20:00,48.0,27.4,30.17,North,0,3.7,4.6,44,0.00,,,0.00,tws,2013-01-23 13:20:00,
2013-01-23 06:30:00,47.8,27.6,30.17,NW,315,3.8,4.5,45,0.00,,,0.00,tws,2013-01-23 13:30:00,
2013-01-23 06:40:00,47.7,27.4,30.17,NNW,337,4.0,4.4,44,0.00,,,0.00,tws,2013-01-23 13:40:00,
2013-01-23 06:50:00,47.7,27.6,30.18,NNW,337,3.7,4.0,45,0.00,,,0.00,tws,2013-01-23 13:50:00,
2013-01-23 07:00:00,47.8,27.7,30.17,NE,45,3.5,4.4,45,0.00,,,0.00,tws,2013-01-23 14:00:00,
2013-01-23 07:10:00,47.8,27.7,30.19,NE,45,3.9,4.5,45,0.00,,,0.00,tws,2013-01-23 14:10:00,
2013-01-23 07:20:00,47.5,27.6,30.19,NNE,22,4.9,5.4,45,0.00,,,0.00,tws,2013-01-23 14:20:00,
2013-01-23 07:30:00,47.1,27.3,30.19,NE,45,5.3,6.3,45,0.00,,,0.00,tws,2013-01-23 14:30:00,
2013-01-23 07:40:00,46.9,27.5,30.20,North,0,4.3,5.1,46,0.00,,,0.00,tws,2013-01-23 14:40:00,
2013-01-23 07:50:00,47.0,27.9,30.19,NE,45,4.0,5.4,47,0.00,,,0.00,tws,2013-01-23 14:50:00,
2013-01-23 08:00:00,47.1,28.0,30.20,North,0,2.5,3.4,47,0.00,,,0.00,tws,2013-01-23 15:00:00,
2013-01-23 08:10:00,47.3,28.3,30.20,North,0,2.7,3.5,47,0.00,,,0.00,tws,2013-01-23 15:10:00,
2013-01-23 08:20:00,47.7,28.8,30.20,North,0,2.8,3.6,47,0.00,,,0.00,tws,2013-01-23 15:20:00,
2013-01-23 08:30:00,48.4,29.1,30.21,East,90,3.5,4.1,47,0.00,,,0.00,tws,2013-01-23 15:30:00,
2013-01-23 08:40:00,49.5,29.7,30.21,North,0,4.6,5.2,46,0.00,,,0.00,tws,2013-01-23 15:40:00,
2013-01-23 08:50:00,50.8,30.5,30.22,NNW,337,3.4,4.9,45,0.00,,,0.00,tws,2013-01-23 15:50:00,
2013-01-23 09:00:00,52.1,31.3,30.21,North,0,3.3,4.5,44,0.00,,,0.00,tws,2013-01-23 16:00:00,
2013-01-23 09:10:00,53.5,32.1,30.22,NNE,22,2.7,3.5,43,0.00,,,0.00,tws,2013-01-23 16:10:00,
2013-01-23 09:20:00,54.8,32.9,30.22,North,0,2.9,3.4,43,0.00,,,0.00,tws,2013-01-23 16:20:00,
2013-01-23 09:30:00,56.4,33.0,30.22,NNW,337,3.2,4.1,40,0.00,,,0.00,tws,2013-01-23 16:30:00,
2013-01-23 09:40:00,57.3,33.6,30.23,NE,45,2.9,3.5,40,0.00,,,0.00,tws,2013-01-23 16:40:00,
2013-01-23 09:50:00,57.9,33.7,30.23,North,0,2.7,3.4,39,0.00,,,0.00,tws,2013-01-23 16:50:00,
2013-01-23 10:00:00,59.0,34.1,30.23,NNW,337,2.6,3.7,38,0.00,,,0.00,tws,2013-01-23 17:00:00,
2013-01-23 10:10:00,60.5,34.6,30.23,North,0,3.4,5.2,37,0.00,,,0.00,tws,2013-01-23 17:10:00,
2013-01-23 10:20:00,62.7,35.7,30.23,ENE,67,2.6,4.5,36,0.00,,,0.00,tws,2013-01-23 17:20:00,
2013-01-23 10:30:00,64.5,36.5,30.23,North,0,2.4,2.9,35,0.00,,,0.00,tws,2013-01-23 17:30:00,
2013-01-23 10:40:00,65.5,36.4,30.23,NE,45,2.8,3.8,33,0.00,,,0.00,tws,2013-01-23 17:40:00,
2013-01-23 10:50:00,66.1,36.0,30.23,East,90,2.6,4.0,32,0.00,,,0.00,tws,2013-01-23 17:50:00,
2013-01-23 11:00:00,66.9,36.7,30.22,NE,45,1.8,2.4,32,0.00,,,0.00,tws,2013-01-23 18:00:00,
2013-01-23 11:10:00,68.1,36.8,30.22,East,90,2.1,3.7,31,0.00,,,0.00,tws,2013-01-23 18:10:00,
2013-01-23 11:20:00,68.9,36.4,30.22,North,0,2.7,3.9,29,0.00,,,0.00,tws,2013-01-23 18:20:00,
2013-01-23 11:30:00,69.5,36.5,30.22,East,90,1.9,3.5,29,0.00,,,0.00,tws,2013-01-23 18:30:00,
2013-01-23 11:40:00,69.6,39.0,30.21,NE,45,2.1,2.9,32,0.00,,,0.00,tws,2013-01-23 18:40:00,
2013-01-23 11:50:00,69.4,37.3,30.21,SE,135,2.2,3.6,30,0.00,,,0.00,tws,2013-01-23 18:50:00,
2013-01-23 12:00:00,69.5,39.0,30.20,SE,135,2.0,3.1,32,0.00,,,0.00,tws,2013-01-23 19:00:00,
2013-01-23 12:10:00,69.7,37.5,30.19,East,90,1.9,2.5,30,0.00,,,0.00,tws,2013-01-23 19:10:00,
2013-01-23 12:20:00,69.9,38.8,30.19,NE,45,2.1,2.7,31,0.00,,,0.00,tws,2013-01-23 19:20:00,
2013-01-23 12:30:00,70.0,37.5,30.19,ENE,67,1.5,2.4,30,0.00,,,0.00,tws,2013-01-23 19:30:00,
2013-01-23 12:40:00,70.3,37.9,30.18,SW,225,1.2,1.7,30,0.00,,,0.00,tws,2013-01-23 19:40:00,
2013-01-23 12:50:00,71.0,36.7,30.18,SSE,157,0.8,1.6,28,0.00,,,0.00,tws,2013-01-23 19:50:00,
2013-01-23 13:00:00,72.2,38.4,30.17,ESE,112,1.2,2.2,28,0.00,,,0.00,tws,2013-01-23 20:00:00,
2013-01-23 13:10:00,73.0,38.9,30.17,ESE,112,2.5,3.8,28,0.00,,,0.00,tws,2013-01-23 20:10:00,
2013-01-23 13:20:00,73.1,37.9,30.17,SSE,157,2.6,3.5,27,0.00,,,0.00,tws,2013-01-23 20:20:00,
2013-01-23 13:30:00,73.2,37.8,30.16,SW,225,1.9,2.9,27,0.00,,,0.00,tws,2013-01-23 20:30:00,
2013-01-23 13:40:00,73.5,37.3,30.16,South,180,1.8,3.1,26,0.00,,,0.00,tws,2013-01-23 20:40:00,
2013-01-23 13:50:00,74.2,37.7,30.16,SSW,202,1.6,2.4,26,0.00,,,0.00,tws,2013-01-23 20:50:00,
2013-01-23 14:00:00,75.3,38.1,30.15,NE,45,2.9,4.5,25,0.00,,,0.00,tws,2013-01-23 21:00:00,
2013-01-23 14:10:00,75.7,37.9,30.14,East,90,2.3,3.0,25,0.00,,,0.00,tws,2013-01-23 21:10:00,
2013-01-23 14:20:00,75.5,38.0,30.15,East,90,2.9,3.3,25,0.00,,,0.00,tws,2013-01-23 21:20:00,
2013-01-23 14:30:00,75.4,38.3,30.14,NNE,22,2.6,3.4,25,0.00,,,0.00,tws,2013-01-23 21:30:00,
2013-01-23 14:40:00,75.3,38.5,30.14,ENE,67,1.7,3.9,25,0.00,,,0.00,tws,2013-01-23 21:40:00,
2013-01-23 14:50:00,75.6,38.2,30.14,SSE,157,1.7,2.8,25,0.00,,,0.00,tws,2013-01-23 21:50:00,
2013-01-23 15:00:00,76.1,38.8,30.14,NE,45,1.9,3.1,25,0.00,,,0.00,tws,2013-01-23 22:00:00,
2013-01-23 15:10:00,76.9,38.5,30.13,SE,135,1.3,3.6,24,0.00,,,0.00,tws,2013-01-23 22:10:00,
2013-01-23 15:20:00,77.5,39.2,30.13,North,0,1.8,3.3,24,0.00,,,0.00,tws,2013-01-23 22:20:00,
2013-01-23 15:30:00,78.6,39.2,30.13,NE,45,1.9,3.1,23,0.00,,,0.00,tws,2013-01-23 22:30:00,
2013-01-23 15:40:00,79.1,39.1,30.13,East,90,2.2,3.7,23,0.00,,,0.00,tws,2013-01-23 22:40:00,
2013-01-23 15:50:00,78.5,39.0,30.13,NE,45,1.5,2.8,23,0.00,,,0.00,tws,2013-01-23 22:50:00,
2013-01-23 16:00:00,78.9,39.2,30.12,East,90,3.6,5.2,23,0.00,,,0.00,tws,2013-01-23 23:00:00,
2013-01-23 16:10:00,80.7,40.5,30.12,East,90,3.2,4.9,23,0.00,,,0.00,tws,2013-01-23 23:10:00,
2013-01-23 16:20:00,81.5,39.6,30.12,SE,135,3.9,5.9,22,0.00,,,0.00,tws,2013-01-23 23:20:00,
2013-01-23 16:30:00,81.2,39.4,30.12,East,90,3.2,4.0,22,0.00,,,0.00,tws,2013-01-23 23:30:00,
2013-01-23 16:40:00,81.1,39.5,30.12,North,0,2.9,4.6,22,0.00,,,0.00,tws,2013-01-23 23:40:00,
2013-01-23 16:50:00,80.7,39.1,30.12,East,90,2.3,3.5,22,0.00,,,0.00,tws,2013-01-23 23:50:00,
2013-01-23 17:00:00,79.6,39.0,30.12,ENE,67,2.6,5.0,22,0.00,,,0.00,tws,2013-01-24 00:00:00,
2013-01-23 17:10:00,78.3,38.0,30.12,East,90,4.1,5.2,23,0.00,,,0.00,tws,2013-01-24 00:10:00,
2013-01-23 17:20:00,77.1,37.7,30.13,East,90,2.2,3.4,23,0.00,,,0.00,tws,2013-01-24 00:20:00,
2013-01-23 17:30:00,76.0,38.3,30.12,SE,135,0.9,2.6,25,0.00,,,0.00,tws,2013-01-24 00:30:00,
2013-01-23 17:40:00,74.9,38.4,30.13,East,90,0.5,1.4,26,0.00,,,0.00,tws,2013-01-24 00:40:00,
2013-01-23 17:50:00,73.5,38.1,30.13,East,90,0.3,1.0,27,0.00,,,0.00,tws,2013-01-24 00:50:00,
2013-01-23 18:00:00,72.2,38.0,30.13,SW,225,0.3,1.0,28,0.00,,,0.00,tws,2013-01-24 01:00:00,
2013-01-23 18:10:00,70.9,37.3,30.14,SW,225,1.4,2.1,28,0.00,,,0.00,tws,2013-01-24 01:10:00,
2013-01-23 18:20:00,69.7,37.0,30.14,West,270,1.7,2.2,29,0.00,,,0.00,tws,2013-01-24 01:20:00,
2013-01-23 18:30:00,68.7,37.0,30.13,NW,315,1.0,1.8,30,0.00,,,0.00,tws,2013-01-24 01:30:00,
2013-01-23 18:40:00,67.7,37.3,30.14,West,270,3.0,5.0,32,0.00,,,0.00,tws,2013-01-24 01:40:00,
2013-01-23 18:50:00,67.0,35.5,30.14,West,270,4.6,5.4,30,0.00,,,0.00,tws,2013-01-24 01:50:00,
2013-01-23 19:00:00,66.8,34.0,30.14,WNW,292,5.6,6.4,29,0.00,,,0.00,tws,2013-01-24 02:00:00,
2013-01-23 19:10:00,66.9,33.4,30.14,NW,315,5.8,6.4,28,0.00,,,0.00,tws,2013-01-24 02:10:00,
2013-01-23 19:20:00,67.0,32.9,30.13,West,270,5.5,6.1,27,0.00,,,0.00,tws,2013-01-24 02:20:00,
2013-01-23 19:30:00,66.9,32.6,30.13,NW,315,5.6,6.4,27,0.00,,,0.00,tws,2013-01-24 02:30:00,
2013-01-23 19:40:00,66.7,32.5,30.13,West,270,5.1,6.6,27,0.00,,,0.00,tws,2013-01-24 02:40:00,
2013-01-23 19:50:00,66.4,32.8,30.14,SW,225,4.0,4.6,28,0.00,,,0.00,tws,2013-01-24 02:50:00,
2013-01-23 20:00:00,65.7,32.4,30.14,NE,45,1.6,2.4,28,0.00,,,0.00,tws,2013-01-24 03:00:00,
2013-01-23 20:10:00,64.8,32.2,30.14,North,0,2.0,2.8,29,0.00,,,0.00,tws,2013-01-24 03:10:00,
2013-01-23 20:20:00,64.0,32.6,30.14,NW,315,3.4,4.2,30,0.00,,,0.00,tws,2013-01-24 03:20:00,
2013-01-23 20:30:00,63.1,32.2,30.15,North,0,2.6,3.4,31,0.00,,,0.00,tws,2013-01-24 03:30:00,
2013-01-23 20:40:00,62.5,32.0,30.15,NW,315,1.8,3.1,31,0.00,,,0.00,tws,2013-01-24 03:40:00,
2013-01-23 20:50:00,61.8,31.8,30.16,NW,315,0.9,1.8,32,0.00,,,0.00,tws,2013-01-24 03:50:00,
2013-01-23 21:00:00,60.9,31.8,30.16,NW,315,1.4,3.1,33,0.00,,,0.00,tws,2013-01-24 04:00:00,
2013-01-23 21:10:00,60.0,31.7,30.16,NW,315,3.5,4.6,34,0.00,,,0.00,tws,2013-01-24 04:10:00,
2013-01-23 21:20:00,59.4,31.7,30.16,NW,315,3.6,4.4,34,0.00,,,0.00,tws,2013-01-24 04:20:00,
2013-01-23 21:30:00,59.1,31.8,30.17,North,0,3.4,3.9,35,0.00,,,0.00,tws,2013-01-24 04:30:00,
2013-01-23 21:40:00,58.9,31.8,30.17,NNW,337,2.8,3.7,35,0.00,,,0.00,tws,2013-01-24 04:40:00,
2013-01-23 21:50:00,58.6,31.8,30.17,NW,315,3.7,4.4,35,0.00,,,0.00,tws,2013-01-24 04:50:00,
2013-01-23 22:10:00,57.8,31.7,30.17,NW,315,2.3,3.3,36,0.00,,,0.00,tws,2013-01-24 05:10:00,
2013-01-23 22:20:00,57.5,31.7,30.18,NW,315,2.9,3.6,37,0.00,,,0.00,tws,2013-01-24 05:20:00,
2013-01-23 22:30:00,57.3,32.1,30.18,NW,315,3.2,3.8,38,0.00,,,0.00,tws,2013-01-24 05:30:00,
2013-01-23 22:40:00,57.0,31.9,30.17,NNW,337,3.0,3.7,38,0.00,,,0.00,tws,2013-01-24 05:40:00,
2013-01-23 22:50:00,56.7,31.6,30.18,NW,315,3.1,4.3,38,0.00,,,0.00,tws,2013-01-24 05:50:00,
2013-01-23 23:00:00,56.5,31.5,30.18,WNW,292,2.2,3.7,38,0.00,,,0.00,tws,2013-01-24 06:00:00,
2013-01-23 23:10:00,56.2,31.4,30.19,SW,225,0.3,1.5,38,0.00,,,0.00,tws,2013-01-24 06:10:00,
2013-01-23 23:20:00,55.8,31.4,30.19,North,0,0.8,1.9,39,0.00,,,0.00,tws,2013-01-24 06:20:00,
2013-01-23 23:30:00,55.4,31.4,30.20,NW,315,1.1,2.2,39,0.00,,,0.00,tws,2013-01-24 06:30:00,
2013-01-23 23:40:00,54.8,31.3,30.20,NW,315,1.7,2.3,40,0.00,,,0.00,tws,2013-01-24 06:40:00,
2013-01-23 23:50:00,54.3,31.5,30.19,NW,315,2.4,3.3,41,0.00,,,0.00,tws,2013-01-24 06:50:00,